createdAt,value
2018-07-27T00:00:16.414Z,4.93
2018-07-27T00:02:45.940Z,4.70
2018-07-27T00:05:15.612Z,4.57
2018-07-27T00:07:44.879Z,4.53
2018-07-27T00:10:17.184Z,5.03
2018-07-27T00:12:46.496Z,4.50
2018-07-27T00:15:15.812Z,4.43
2018-07-27T00:17:45.117Z,5.30
2018-07-27T00:20:14.419Z,4.77
2018-07-27T00:22:43.684Z,4.77
2018-07-27T00:25:12.935Z,4.93
2018-07-27T00:27:42.232Z,4.77
2018-07-27T00:30:11.540Z,4.90
2018-07-27T00:32:40.821Z,4.70
2018-07-27T00:35:10.405Z,4.97
2018-07-27T00:37:40.016Z,4.87
2018-07-27T00:40:09.584Z,4.60
2018-07-27T00:42:38.892Z,4.30
2018-07-27T00:45:08.176Z,4.60
2018-07-27T00:47:37.438Z,5.67
2018-07-27T00:50:06.791Z,4.70
2018-07-27T00:52:36.084Z,5.40
2018-07-27T00:55:05.355Z,4.70
2018-07-27T00:57:34.417Z,4.70
2018-07-27T01:00:04.041Z,4.97
2018-07-27T01:02:34.140Z,5.23
2018-07-27T01:05:03.386Z,5.20
2018-07-27T01:07:33.060Z,5.57
2018-07-27T01:10:02.659Z,4.63
2018-07-27T01:12:31.932Z,4.53
2018-07-27T01:15:01.206Z,5.40
2018-07-27T01:17:30.807Z,5.03
2018-07-27T01:20:00.549Z,5.50
2018-07-27T01:22:29.773Z,5.77
2018-07-27T01:24:59.060Z,5.27
2018-07-27T01:27:29.207Z,4.57
2018-07-27T01:29:58.507Z,5.37
2018-07-27T01:32:28.129Z,5.33
2018-07-27T01:34:57.394Z,5.20
2018-07-27T01:37:27.384Z,5.00
2018-07-27T01:39:56.655Z,5.20
2018-07-27T01:42:26.268Z,5.87
2018-07-27T01:44:55.508Z,5.10
2018-07-27T01:47:25.468Z,5.87
2018-07-27T01:49:55.017Z,5.73
2018-07-27T01:52:24.226Z,5.30
2018-07-27T01:54:53.454Z,5.10
2018-07-27T01:57:22.727Z,6.23
2018-07-27T01:59:51.942Z,5.50
2018-07-27T02:02:21.654Z,6.30
2018-07-27T02:04:51.275Z,5.00
2018-07-27T02:07:20.599Z,5.90
2018-07-27T02:09:49.865Z,5.50
2018-07-27T02:12:19.078Z,5.37
2018-07-27T02:14:48.371Z,5.07
2018-07-27T02:17:17.561Z,5.43
2018-07-27T02:19:47.098Z,6.00
2018-07-27T02:22:16.347Z,5.90
2018-07-27T02:24:46.055Z,5.80
2018-07-27T02:27:15.784Z,5.73
2018-07-27T02:29:45.366Z,5.40
2018-07-27T02:32:14.657Z,7.30
2018-07-27T02:34:43.940Z,5.67
2018-07-27T02:37:13.264Z,5.53
2018-07-27T02:39:43.562Z,6.70
2018-07-27T02:42:13.234Z,6.40
2018-07-27T02:44:42.548Z,6.10
2018-07-27T02:47:11.865Z,6.30
2018-07-27T02:49:41.939Z,6.03
2018-07-27T02:52:11.529Z,6.20
2018-07-27T02:54:41.539Z,5.60
2018-07-27T02:57:10.779Z,6.03
2018-07-27T02:59:40.067Z,6.83
2018-07-27T03:02:09.791Z,6.47
2018-07-27T03:04:39.412Z,5.73
2018-07-27T03:07:08.679Z,5.97
2018-07-27T03:09:38.125Z,6.60
2018-07-27T03:12:07.562Z,5.53
2018-07-27T03:14:36.800Z,6.03
2018-07-27T03:17:06.715Z,7.00
2018-07-27T03:19:36.683Z,6.30
2018-07-27T03:22:05.987Z,7.10
2018-07-27T03:24:35.221Z,6.90
2018-07-27T03:27:04.532Z,6.70
2018-07-27T03:29:33.840Z,7.03
2018-07-27T03:32:03.539Z,6.60
2018-07-27T03:34:33.526Z,6.30
2018-07-27T03:37:03.654Z,7.37
2018-07-27T03:39:32.896Z,6.43
2018-07-27T03:42:02.471Z,6.63
2018-07-27T03:44:32.043Z,8.03
2018-07-27T03:47:01.266Z,6.90
2018-07-27T03:49:30.507Z,7.10
2018-07-27T03:52:00.064Z,7.00
2018-07-27T03:54:29.760Z,7.80
2018-07-27T03:56:59.358Z,7.33
2018-07-27T03:59:28.637Z,7.13
2018-07-27T04:01:58.722Z,7.73
2018-07-27T04:04:28.322Z,7.20
2018-07-27T04:06:58.057Z,8.17
2018-07-27T04:09:27.666Z,7.10
2018-07-27T04:11:56.919Z,7.60
2018-07-27T04:14:26.651Z,6.43
2018-07-27T04:16:55.874Z,7.30
2018-07-27T04:19:25.577Z,7.90
2018-07-27T04:21:55.140Z,7.60
2018-07-27T04:24:24.424Z,7.80
2018-07-27T04:26:53.696Z,7.73
2018-07-27T04:29:22.941Z,7.17
2018-07-27T04:31:52.552Z,6.93
2018-07-27T04:34:21.796Z,7.47
2018-07-27T04:36:51.121Z,8.20
2018-07-27T04:39:20.357Z,8.07
2018-07-27T04:41:49.959Z,7.90
2018-07-27T04:44:19.519Z,8.10
2018-07-27T04:46:48.774Z,8.17
2018-07-27T04:49:18.490Z,8.07
2018-07-27T04:51:47.770Z,7.60
2018-07-27T04:54:17.484Z,7.47
2018-07-27T04:56:46.800Z,8.20
2018-07-27T04:59:16.058Z,8.10
2018-07-27T05:01:48.701Z,8.10
2018-07-27T05:04:18.594Z,8.00
2018-07-27T05:06:47.872Z,7.57
2018-07-27T05:09:21.900Z,8.30
2018-07-27T05:11:51.964Z,8.20
2018-07-27T05:14:21.675Z,8.50
2018-07-27T05:16:51.379Z,9.23
2018-07-27T05:19:20.620Z,8.63
2018-07-27T05:21:50.175Z,8.77
2018-07-27T05:24:19.893Z,7.77
2018-07-27T05:26:49.171Z,7.27
2018-07-27T05:29:18.844Z,8.10
2018-07-27T05:31:48.646Z,8.60
2018-07-27T05:34:17.898Z,8.30
2018-07-27T05:36:47.180Z,8.70
2018-07-27T05:39:16.464Z,9.30
2018-07-27T05:41:45.986Z,9.17
2018-07-27T05:44:15.190Z,8.73
2018-07-27T05:46:44.450Z,7.77
2018-07-27T05:49:13.651Z,7.60
2018-07-27T05:51:43.221Z,8.27
2018-07-27T05:54:12.506Z,9.13
2018-07-27T05:56:42.077Z,8.80
2018-07-27T05:59:11.341Z,8.60
2018-07-27T06:01:40.554Z,8.83
2018-07-27T06:04:09.872Z,8.10
2018-07-27T06:06:39.458Z,7.20
2018-07-27T06:09:10.490Z,6.93
2018-07-27T06:11:39.714Z,6.43
2018-07-27T06:14:09.019Z,5.80
2018-07-27T06:16:38.726Z,5.70
2018-07-27T06:19:08.158Z,5.43
2018-07-27T06:21:37.841Z,5.00
2018-07-27T06:24:07.617Z,5.17
2018-07-27T06:26:36.822Z,4.97
2018-07-27T06:29:06.075Z,4.80
2018-07-27T06:31:35.766Z,4.70
2018-07-27T06:34:05.039Z,4.77
2018-07-27T06:36:34.295Z,4.20
2018-07-27T06:39:03.591Z,4.27
2018-07-27T06:41:33.139Z,4.00
2018-07-27T06:44:02.384Z,4.80
2018-07-27T06:46:32.063Z,5.07
2018-07-27T06:49:01.345Z,6.40
2018-07-27T06:51:30.632Z,6.87
2018-07-27T06:54:00.234Z,7.90
2018-07-27T06:56:29.514Z,6.87
2018-07-27T06:58:58.538Z,7.80
2018-07-27T07:01:28.231Z,8.47
2018-07-27T07:03:57.852Z,7.77
2018-07-27T07:06:27.404Z,9.30
2018-07-27T07:08:56.950Z,8.60
2018-07-27T07:11:26.238Z,8.17
2018-07-27T07:13:56.220Z,9.00
2018-07-27T07:16:25.905Z,8.70
2018-07-27T07:18:55.447Z,8.23
2018-07-27T07:21:25.079Z,9.47
2018-07-27T07:23:54.551Z,8.30
2018-07-27T07:26:24.375Z,9.30
2018-07-27T07:28:53.806Z,9.17
2018-07-27T07:31:23.468Z,8.43
2018-07-27T07:33:52.674Z,9.17
2018-07-27T07:36:22.639Z,9.37
2018-07-27T07:38:52.259Z,8.00
2018-07-27T07:41:21.515Z,7.93
2018-07-27T07:43:51.124Z,9.00
2018-07-27T07:46:20.736Z,8.73
2018-07-27T07:48:50.089Z,9.20
2018-07-27T07:51:19.355Z,7.90
2018-07-27T07:53:48.665Z,8.87
2018-07-27T07:56:17.996Z,8.10
2018-07-27T07:58:47.296Z,7.83
2018-07-27T08:01:16.551Z,7.77
2018-07-27T08:03:45.829Z,8.17
2018-07-27T08:06:15.405Z,8.10
2018-07-27T08:08:44.673Z,9.13
2018-07-27T08:11:14.049Z,8.47
2018-07-27T08:13:43.687Z,8.00
2018-07-27T08:16:13.563Z,7.83
2018-07-27T08:18:43.269Z,8.30
2018-07-27T08:21:12.593Z,6.87
2018-07-27T08:23:42.606Z,7.87
2018-07-27T08:26:49.667Z,8.13
2018-07-27T08:29:21.468Z,8.53
2018-07-27T08:31:51.953Z,7.70
2018-07-27T08:34:21.860Z,7.77
2018-07-27T08:36:51.819Z,7.60
2018-07-27T08:39:22.370Z,7.33
2018-07-27T08:41:51.892Z,8.40
2018-07-27T08:44:25.354Z,7.10
2018-07-27T08:46:54.729Z,8.03
2018-07-27T08:49:23.995Z,7.47
2018-07-27T08:51:53.332Z,8.00
2018-07-27T08:54:22.617Z,7.63
2018-07-27T08:56:51.892Z,8.10
2018-07-27T08:59:21.110Z,7.07
2018-07-27T09:01:51.626Z,6.97
2018-07-27T09:04:20.903Z,7.10
2018-07-27T09:06:50.189Z,5.50
2018-07-27T09:09:19.989Z,4.70
2018-07-27T09:11:49.311Z,4.23
2018-07-27T09:14:18.526Z,3.50
2018-07-27T09:16:47.785Z,3.87
2018-07-27T09:19:17.035Z,3.40
2018-07-27T09:21:46.229Z,3.00
2018-07-27T09:24:15.475Z,2.50
2018-07-27T09:26:45.020Z,2.30
2018-07-27T09:29:14.328Z,2.97
2018-07-27T09:31:43.576Z,2.60
2018-07-27T09:34:13.247Z,2.80
2018-07-27T09:36:42.581Z,2.67
2018-07-27T09:39:12.203Z,2.63
2018-07-27T09:41:41.851Z,2.77
2018-07-27T09:44:11.169Z,2.80
2018-07-27T09:46:40.519Z,2.80
2018-07-27T09:49:10.111Z,2.83
2018-07-27T09:51:39.442Z,3.03
2018-07-27T09:54:08.659Z,2.90
2018-07-27T09:56:37.915Z,3.10
2018-07-27T09:59:07.624Z,2.33
2018-07-27T10:01:37.319Z,2.80
2018-07-27T10:04:06.651Z,2.80
2018-07-27T10:06:35.939Z,2.80
2018-07-27T10:09:07.363Z,2.87
2018-07-27T10:11:36.635Z,2.30
2018-07-27T10:14:05.986Z,2.63
2018-07-27T10:16:35.691Z,2.10
2018-07-27T10:19:05.131Z,2.47
2018-07-27T10:21:34.405Z,2.53
2018-07-27T10:24:03.821Z,2.30
2018-07-27T10:26:32.839Z,2.53
2018-07-27T10:29:02.060Z,3.10
2018-07-27T10:31:31.315Z,3.30
2018-07-27T10:34:00.612Z,4.13
2018-07-27T10:36:29.880Z,4.90
2018-07-27T10:38:59.888Z,4.83
2018-07-27T10:41:29.434Z,5.10
2018-07-27T10:43:58.997Z,5.57
2018-07-27T10:46:28.250Z,6.03
2018-07-27T10:48:57.537Z,5.67
2018-07-27T10:51:27.094Z,6.10
2018-07-27T10:53:56.587Z,5.40
2018-07-27T10:56:26.509Z,4.93
2018-07-27T10:58:56.924Z,5.10
2018-07-27T11:01:26.612Z,5.07
2018-07-27T11:03:56.508Z,5.17
2018-07-27T11:06:25.967Z,4.47
2018-07-27T11:08:55.273Z,4.73
2018-07-27T11:11:24.467Z,6.07
2018-07-27T11:13:53.788Z,4.80
2018-07-27T11:16:22.901Z,5.27
2018-07-27T11:18:52.398Z,4.53
2018-07-27T11:21:21.970Z,4.63
2018-07-27T11:23:51.209Z,5.53
2018-07-27T11:26:20.468Z,5.43
2018-07-27T11:28:49.756Z,6.10
2018-07-27T11:31:19.324Z,5.90
2018-07-27T11:33:48.392Z,6.00
2018-07-27T11:36:18.088Z,5.43
2018-07-27T11:38:47.300Z,4.83
2018-07-27T11:41:17.002Z,5.00
2018-07-27T11:43:46.610Z,4.50
2018-07-27T11:46:15.815Z,5.27
2018-07-27T11:48:45.508Z,5.00
2018-07-27T11:51:15.382Z,5.37
2018-07-27T11:53:44.672Z,4.77
2018-07-27T11:56:13.953Z,5.27
2018-07-27T11:58:43.637Z,5.50
2018-07-27T12:01:12.909Z,5.50
2018-07-27T12:03:42.230Z,5.30
2018-07-27T12:06:11.512Z,5.17
2018-07-27T12:08:40.795Z,5.63
2018-07-27T12:11:10.041Z,4.80
2018-07-27T12:13:39.250Z,4.97
2018-07-27T12:16:08.991Z,5.43
2018-07-27T12:18:38.532Z,5.60
2018-07-27T12:21:08.612Z,5.10
2018-07-27T12:23:37.859Z,4.97
2018-07-27T12:26:07.906Z,4.30
2018-07-27T12:28:37.182Z,4.63
2018-07-27T12:31:06.430Z,4.60
2018-07-27T12:33:35.991Z,5.00
2018-07-27T12:36:05.562Z,4.50
2018-07-27T12:38:34.836Z,4.90
2018-07-27T12:41:04.110Z,4.60
2018-07-27T12:43:33.736Z,4.30
2018-07-27T12:46:03.439Z,4.53
2018-07-27T12:48:33.248Z,4.60
2018-07-27T12:51:02.554Z,5.10
2018-07-27T12:53:32.553Z,5.70
2018-07-27T12:56:02.210Z,6.10
2018-07-27T12:58:31.436Z,6.53
2018-07-27T13:01:01.098Z,6.30
2018-07-27T13:03:30.708Z,7.33
2018-07-27T13:05:59.999Z,6.30
2018-07-27T13:08:29.624Z,6.33
2018-07-27T13:10:59.279Z,5.80
2018-07-27T13:13:28.558Z,5.77
2018-07-27T13:15:57.812Z,5.60
2018-07-27T13:18:27.466Z,5.27
2018-07-27T13:20:57.467Z,5.27
2018-07-27T13:23:26.838Z,5.20
2018-07-27T13:26:24.814Z,4.93
2018-07-27T13:28:40.038Z,4.50
2018-07-27T13:31:10.099Z,4.53
2018-07-27T13:33:44.162Z,5.20
2018-07-27T13:36:13.422Z,4.50
2018-07-27T13:38:42.647Z,4.70
2018-07-27T13:41:11.887Z,5.27
2018-07-27T13:43:41.813Z,4.53
2018-07-27T13:46:11.460Z,4.67
2018-07-27T13:48:40.678Z,4.80
2018-07-27T13:51:10.365Z,5.00
2018-07-27T13:53:39.970Z,3.77
2018-07-27T13:56:09.589Z,3.90
2018-07-27T13:58:38.900Z,4.37
2018-07-27T14:01:09.230Z,4.83
2018-07-27T14:03:38.513Z,3.90
2018-07-27T14:06:07.788Z,3.67
2018-07-27T14:08:37.376Z,4.17
2018-07-27T14:11:06.926Z,3.33
2018-07-27T14:13:36.203Z,3.03
2018-07-27T14:16:05.477Z,3.10
2018-07-27T14:18:34.768Z,3.37
2018-07-27T14:21:04.355Z,3.47
2018-07-27T14:23:33.937Z,3.40
2018-07-27T14:26:03.284Z,3.47
2018-07-27T14:28:32.526Z,3.10
2018-07-27T14:31:02.190Z,3.20
2018-07-27T14:33:32.126Z,3.00
2018-07-27T14:36:01.800Z,3.73
2018-07-27T14:38:31.476Z,3.30
2018-07-27T14:41:01.000Z,3.90
2018-07-27T14:43:30.653Z,3.20
2018-07-27T14:46:00.326Z,3.70
2018-07-27T14:48:29.591Z,4.07
2018-07-27T14:50:58.818Z,3.93
2018-07-27T14:53:28.523Z,3.57
2018-07-27T14:55:58.227Z,3.53
2018-07-27T14:58:27.732Z,3.90
2018-07-27T15:00:56.986Z,4.23
2018-07-27T15:03:26.262Z,3.90
2018-07-27T15:05:56.012Z,4.20
2018-07-27T15:08:25.258Z,4.40
2018-07-27T15:10:55.135Z,3.50
2018-07-27T15:13:25.572Z,4.07
2018-07-27T15:15:54.821Z,3.70
2018-07-27T15:18:24.475Z,3.47
2018-07-27T15:20:53.735Z,3.90
2018-07-27T15:23:23.654Z,3.50
2018-07-27T15:25:52.952Z,4.30
2018-07-27T15:28:22.635Z,4.23
2018-07-27T15:30:52.213Z,3.87
2018-07-27T15:33:21.455Z,4.10
2018-07-27T15:35:51.161Z,3.87
2018-07-27T15:38:20.455Z,3.20
2018-07-27T15:40:56.428Z,4.00
2018-07-27T15:43:25.519Z,4.00
2018-07-27T15:45:54.792Z,3.20
2018-07-27T15:48:24.375Z,3.53
2018-07-27T15:50:53.543Z,3.10
2018-07-27T15:53:22.810Z,3.10
2018-07-27T15:55:52.449Z,2.77
2018-07-27T15:58:22.097Z,3.10
2018-07-27T16:00:51.457Z,3.87
2018-07-27T16:03:20.776Z,4.10
2018-07-27T16:05:50.071Z,3.47
2018-07-27T16:08:19.518Z,5.80
2018-07-27T16:10:49.647Z,3.40
2018-07-27T16:13:19.191Z,3.60
2018-07-27T16:15:48.904Z,3.60
2018-07-27T16:18:18.623Z,3.10
2018-07-27T16:20:47.901Z,3.20
2018-07-27T16:23:17.588Z,2.60
2018-07-27T16:25:46.823Z,2.90
2018-07-27T16:28:16.448Z,3.00
2018-07-27T16:30:46.266Z,3.10
2018-07-27T16:33:15.506Z,2.53
2018-07-27T16:35:45.047Z,2.40
2018-07-27T16:38:14.295Z,2.90
2018-07-27T16:40:43.560Z,2.93
2018-07-27T16:43:12.981Z,2.53
2018-07-27T16:45:42.237Z,2.27
2018-07-27T16:48:11.567Z,2.53
2018-07-27T16:50:41.215Z,2.50
2018-07-27T16:53:10.701Z,2.47
2018-07-27T16:55:40.065Z,2.67
2018-07-27T16:58:09.181Z,2.33
2018-07-27T17:00:38.468Z,2.60
2018-07-27T17:03:07.741Z,2.50
2018-07-27T17:05:37.220Z,2.33
2018-07-27T17:08:06.710Z,2.17
2018-07-27T17:10:36.158Z,3.33
2018-07-27T17:13:05.819Z,2.50
2018-07-27T17:15:35.417Z,2.77
2018-07-27T17:18:04.667Z,2.80
2018-07-27T17:20:33.891Z,2.77
2018-07-27T17:23:03.227Z,2.67
2018-07-27T17:25:32.476Z,2.63
2018-07-27T17:28:01.994Z,3.00
2018-07-27T17:30:31.258Z,4.17
2018-07-27T17:33:00.527Z,3.43
2018-07-27T17:35:30.168Z,3.10
2018-07-27T17:37:59.460Z,2.97
2018-07-27T17:40:28.661Z,3.20
2018-07-27T17:42:58.873Z,3.53
2018-07-27T17:45:28.195Z,3.10
2018-07-27T17:47:57.442Z,3.40
2018-07-27T17:50:27.965Z,3.67
2018-07-27T17:52:59.010Z,3.80
2018-07-27T17:55:28.266Z,3.80
2018-07-27T17:57:57.424Z,3.90
2018-07-27T18:00:27.103Z,3.43
2018-07-27T18:02:56.358Z,3.80
2018-07-27T18:05:26.072Z,3.80
2018-07-27T18:07:55.881Z,4.10
2018-07-27T18:10:25.192Z,3.20
2018-07-27T18:12:54.529Z,3.23
2018-07-27T18:15:24.361Z,4.13
2018-07-27T18:17:53.946Z,3.63
2018-07-27T18:20:23.182Z,3.67
2018-07-27T18:22:52.476Z,4.10
2018-07-27T18:25:22.563Z,3.40
2018-07-27T18:27:51.814Z,3.90
2018-07-27T18:30:21.530Z,3.70
2018-07-27T18:32:50.776Z,4.17
2018-07-27T18:35:20.009Z,3.50
2018-07-27T18:37:49.304Z,4.30
2018-07-27T18:40:18.583Z,4.00
2018-07-27T18:42:47.844Z,3.93
2018-07-27T18:45:17.078Z,5.73
2018-07-27T18:47:46.349Z,4.80
2018-07-27T18:50:16.356Z,5.37
2018-07-27T18:52:45.950Z,5.60
2018-07-27T18:55:15.211Z,4.83
2018-07-27T18:57:44.491Z,4.93
2018-07-27T19:00:13.808Z,5.17
2018-07-27T19:02:43.126Z,6.20
2018-07-27T19:05:12.683Z,5.87
2018-07-27T19:07:43.904Z,6.10
2018-07-27T19:10:13.567Z,5.30
2018-07-27T19:12:42.834Z,5.77
2018-07-27T19:15:12.458Z,5.30
2018-07-27T19:17:42.052Z,4.90
2018-07-27T19:20:11.383Z,5.73
2018-07-27T19:22:41.036Z,5.23
2018-07-27T19:25:10.302Z,5.07
2018-07-27T19:27:39.978Z,4.57
2018-07-27T19:30:11.644Z,5.33
2018-07-27T19:32:40.919Z,4.87
2018-07-27T19:35:10.617Z,5.07
2018-07-27T19:37:40.396Z,4.27
2018-07-27T19:40:09.652Z,4.30
2018-07-27T19:42:39.193Z,4.80
2018-07-27T19:45:08.901Z,5.07
2018-07-27T19:47:38.096Z,5.60
2018-07-27T19:50:07.713Z,5.57
2018-07-27T19:52:37.769Z,4.90
2018-07-27T19:55:07.129Z,5.43
2018-07-27T19:57:36.786Z,5.13
2018-07-27T20:00:07.750Z,5.27
2018-07-27T20:02:37.059Z,4.73
2018-07-27T20:05:06.627Z,5.30
2018-07-27T20:07:36.248Z,5.07
2018-07-27T20:10:06.387Z,5.13
2018-07-27T20:12:35.627Z,5.40
2018-07-27T20:15:05.391Z,5.57
2018-07-27T20:17:35.088Z,5.40
2018-07-27T20:20:04.556Z,5.33
2018-07-27T20:22:34.406Z,5.53
2018-07-27T20:25:03.753Z,4.87
2018-07-27T20:27:33.422Z,4.73
2018-07-27T20:30:03.052Z,5.50
2018-07-27T20:32:32.278Z,5.50
2018-07-27T20:35:01.519Z,5.93
2018-07-27T20:37:30.831Z,5.07
2018-07-27T20:40:00.083Z,5.60
2018-07-27T20:42:29.358Z,5.30
2018-07-27T20:44:58.620Z,5.80
2018-07-27T20:47:27.693Z,5.80
2018-07-27T20:49:57.063Z,5.60
2018-07-27T20:52:26.367Z,5.57
2018-07-27T20:54:56.087Z,5.77
2018-07-27T20:57:25.339Z,6.00
2018-07-27T20:59:54.711Z,6.30
2018-07-27T21:02:23.998Z,7.90
2018-07-27T21:04:54.385Z,7.10
2018-07-27T21:07:23.677Z,6.83
2018-07-27T21:09:52.926Z,6.70
2018-07-27T21:12:22.226Z,7.00
2018-07-27T21:14:51.518Z,6.90
2018-07-27T21:17:20.837Z,7.13
2018-07-27T21:19:50.100Z,7.23
2018-07-27T21:22:19.624Z,7.80
2018-07-27T21:24:49.192Z,8.90
2018-07-27T21:27:18.535Z,10.50
2018-07-27T21:29:48.176Z,10.50
2018-07-27T21:32:17.465Z,10.27
2018-07-27T21:34:46.982Z,10.00
2018-07-27T21:37:16.307Z,9.40
2018-07-27T21:39:45.819Z,9.53
2018-07-27T21:42:15.138Z,8.60
2018-07-27T21:44:45.074Z,9.70
2018-07-27T21:47:14.353Z,9.73
2018-07-27T21:49:43.599Z,9.83
2018-07-27T21:52:13.270Z,8.90
2018-07-27T21:54:42.532Z,9.40
2018-07-27T21:57:12.086Z,8.77
2018-07-27T21:59:41.416Z,9.70
2018-07-27T22:02:10.718Z,9.00
2018-07-27T22:04:40.555Z,10.37
2018-07-27T22:07:09.774Z,9.60
2018-07-27T22:09:39.506Z,8.30
2018-07-27T22:12:08.852Z,8.57
2018-07-27T22:14:38.063Z,8.20
2018-07-27T22:17:08.519Z,8.30
2018-07-27T22:19:38.112Z,10.77
2018-07-27T22:22:07.709Z,10.07
2018-07-27T22:24:37.003Z,10.80
2018-07-27T22:27:07.001Z,10.67
2018-07-27T22:29:36.572Z,10.53
2018-07-27T22:32:05.928Z,11.13
2018-07-27T22:34:35.168Z,11.40
2018-07-27T22:37:04.499Z,9.87
2018-07-27T22:39:33.759Z,10.07
2018-07-27T22:42:03.371Z,10.37
2018-07-27T22:44:33.087Z,10.67
2018-07-27T22:47:02.326Z,9.97
2018-07-27T22:49:31.615Z,10.97
2018-07-27T22:52:00.891Z,9.47
2018-07-27T22:54:30.120Z,9.30
2018-07-27T22:56:59.449Z,9.50
2018-07-27T22:59:28.690Z,9.27
2018-07-27T23:01:57.956Z,10.60
2018-07-27T23:04:27.215Z,9.67
2018-07-27T23:06:56.808Z,10.30
2018-07-27T23:09:26.400Z,11.10
2018-07-27T23:11:55.738Z,9.63
2018-07-27T23:14:25.290Z,9.30
2018-07-27T23:16:54.875Z,10.00
2018-07-27T23:19:24.142Z,9.93
2018-07-27T23:21:53.452Z,9.50
2018-07-27T23:24:23.121Z,11.17
2018-07-27T23:26:52.807Z,10.47
2018-07-27T23:29:22.072Z,11.10
2018-07-27T23:31:51.660Z,10.70
2018-07-27T23:34:21.253Z,12.20
2018-07-27T23:36:50.504Z,11.23
2018-07-27T23:39:19.822Z,11.70
2018-07-27T23:41:49.445Z,11.30
2018-07-27T23:44:18.753Z,10.50
2018-07-27T23:46:48.131Z,11.43
2018-07-27T23:49:17.860Z,10.43
2018-07-27T23:51:47.499Z,10.80
2018-07-27T23:54:17.108Z,12.50
2018-07-27T23:56:46.388Z,11.83
2018-07-27T23:59:15.693Z,12.47
